sensor_id;sensor_type;location;lat;lon;timestamp;P1;durP1;ratioP1;P2;durP2;ratioP2
6561;SDS011;3314;50.890;4.722;2024-02-26T00:01:04;6.4;;;1.0;;
6561;SDS011;3314;50.890;4.722;2024-02-26T00:02:53;6.3;;;1.1;;
6561;SDS011;3314;50.890;4.722;2024-02-26T00:04:53;6.9;;;1.4;;
6561;SDS011;3314;50.890;4.722;2024-02-26T00:06:54;5.7;;;0.9;;
6561;SDS011;3314;50.890;4.722;2024-02-26T00:08:54;5.6;;;1.0;;
6561;SDS011;3314;50.890;4.722;2024-02-26T00:10:54;6.9;;;1.2;;
6561;SDS011;3314;50.890;4.722;2024-02-26T00:12:54;6.0;;;1.2;;
6561;SDS011;3314;50.890;4.722;2024-02-26T00:14:54;6.7;;;1.2;;
6561;SDS011;3314;50.890;4.722;2024-02-26T00:16:54;5.8;;;0.9;;
6561;SDS011;3314;50.890;4.722;2024-02-26T00:18:53;5.8;;;1.0;;
6561;SDS011;3314;50.890;4.722;2024-02-26T00:20:53;5.5;;;0.8;;
6561;SDS011;3314;50.890;4.722;2024-02-26T00:22:53;6.0;;;0.7;;
6561;SDS011;3314;50.890;4.722;2024-02-26T00:24:53;5.9;;;0.9;;
6561;SDS011;3314;50.890;4.722;2024-02-26T00:26:55;6.4;;;0.8;;
6561;SDS011;3314;50.890;4.722;2024-02-26T00:28:54;7.0;;;1.0;;
6561;SDS011;3314;50.890;4.722;2024-02-26T00:30:56;6.9;;;0.9;;
6561;SDS011;3314;50.890;4.722;2024-02-26T00:32:56;5.7;;;1.0;;
6561;SDS011;3314;50.890;4.722;2024-02-26T00:34:55;5.6;;;0.8;;
6561;SDS011;3314;50.890;4.722;2024-02-26T00:36:55;5.5;;;0.9;;
6561;SDS011;3314;50.890;4.722;2024-02-26T00:38:55;5.5;;;0.9;;
6561;SDS011;3314;50.890;4.722;2024-02-26T00:40:55;5.3;;;0.8;;
6561;SDS011;3314;50.890;4.722;2024-02-26T00:42:55;5.8;;;0.9;;
6561;SDS011;3314;50.890;4.722;2024-02-26T00:44:55;6.3;;;0.9;;
6561;SDS011;3314;50.890;4.722;2024-02-26T00:46:54;7.1;;;1.0;;
6561;SDS011;3314;50.890;4.722;2024-02-26T00:48:54;6.3;;;1.1;;
6561;SDS011;3314;50.890;4.722;2024-02-26T00:50:44;6.4;;;0.8;;
6561;SDS011;3314;50.890;4.722;2024-02-26T00:52:44;7.1;;;0.9;;
6561;SDS011;3314;50.890;4.722;2024-02-26T00:54:44;6.8;;;1.0;;
6561;SDS011;3314;50.890;4.722;2024-02-26T00:56:43;7.3;;;0.9;;
6561;SDS011;3314;50.890;4.722;2024-02-26T00:58:43;6.4;;;0.9;;
6561;SDS011;3314;50.890;4.722;2024-02-26T01:00:43;6.5;;;1.2;;
6561;SDS011;3314;50.890;4.722;2024-02-26T01:02:43;6.2;;;0.9;;
6561;SDS011;3314;50.890;4.722;2024-02-26T01:04:42;6.8;;;0.8;;
6561;SDS011;3314;50.890;4.722;2024-02-26T01:06:42;8.2;;;1.2;;
6561;SDS011;3314;50.890;4.722;2024-02-26T01:08:42;5.6;;;0.9;;
6561;SDS011;3314;50.890;4.722;2024-02-26T01:10:42;6.8;;;0.8;;
6561;SDS011;3314;50.890;4.722;2024-02-26T01:12:41;5.7;;;1.0;;
6561;SDS011;3314;50.890;4.722;2024-02-26T01:14:41;5.5;;;1.0;;
6561;SDS011;3314;50.890;4.722;2024-02-26T01:16:41;6.1;;;0.8;;
6561;SDS011;3314;50.890;4.722;2024-02-26T01:18:40;5.7;;;1.0;;
6561;SDS011;3314;50.890;4.722;2024-02-26T01:20:40;5.4;;;1.0;;
6561;SDS011;3314;50.890;4.722;2024-02-26T01:22:41;8.8;;;0.9;;
6561;SDS011;3314;50.890;4.722;2024-02-26T01:24:41;12.2;;;1.2;;
6561;SDS011;3314;50.890;4.722;2024-02-26T01:26:41;6.3;;;1.0;;
6561;SDS011;3314;50.890;4.722;2024-02-26T01:28:40;5.5;;;0.9;;
6561;SDS011;3314;50.890;4.722;2024-02-26T01:30:40;8.4;;;0.9;;
6561;SDS011;3314;50.890;4.722;2024-02-26T01:32:40;6.6;;;1.0;;
6561;SDS011;3314;50.890;4.722;2024-02-26T01:34:39;6.5;;;1.1;;
6561;SDS011;3314;50.890;4.722;2024-02-26T01:36:39;5.4;;;0.9;;
6561;SDS011;3314;50.890;4.722;2024-02-26T01:38:39;5.1;;;0.8;;
6561;SDS011;3314;50.890;4.722;2024-02-26T01:40:38;5.4;;;0.7;;
6561;SDS011;3314;50.890;4.722;2024-02-26T01:42:38;7.1;;;1.0;;
6561;SDS011;3314;50.890;4.722;2024-02-26T01:44:39;5.4;;;0.8;;
6561;SDS011;3314;50.890;4.722;2024-02-26T01:46:38;5.7;;;0.7;;
6561;SDS011;3314;50.890;4.722;2024-02-26T01:48:38;6.6;;;0.9;;
6561;SDS011;3314;50.890;4.722;2024-02-26T01:50:38;6.8;;;1.0;;
6561;SDS011;3314;50.890;4.722;2024-02-26T01:52:39;5.5;;;0.9;;
6561;SDS011;3314;50.890;4.722;2024-02-26T01:54:39;5.4;;;0.8;;
6561;SDS011;3314;50.890;4.722;2024-02-26T01:56:39;5.5;;;0.9;;
6561;SDS011;3314;50.890;4.722;2024-02-26T01:58:39;6.0;;;1.0;;
6561;SDS011;3314;50.890;4.722;2024-02-26T02:00:40;6.2;;;0.8;;
6561;SDS011;3314;50.890;4.722;2024-02-26T02:02:42;5.7;;;0.9;;
6561;SDS011;3314;50.890;4.722;2024-02-26T02:04:30;5.7;;;1.2;;
6561;SDS011;3314;50.890;4.722;2024-02-26T02:06:30;8.2;;;1.1;;
6561;SDS011;3314;50.890;4.722;2024-02-26T02:08:30;7.1;;;0.9;;
6561;SDS011;3314;50.890;4.722;2024-02-26T02:10:30;5.3;;;0.9;;
6561;SDS011;3314;50.890;4.722;2024-02-26T02:12:29;5.6;;;0.9;;
6561;SDS011;3314;50.890;4.722;2024-02-26T02:14:29;5.7;;;1.1;;
6561;SDS011;3314;50.890;4.722;2024-02-26T02:16:29;7.9;;;0.9;;
6561;SDS011;3314;50.890;4.722;2024-02-26T02:18:28;4.9;;;0.7;;
6561;SDS011;3314;50.890;4.722;2024-02-26T02:20:31;6.6;;;0.9;;
6561;SDS011;3314;50.890;4.722;2024-02-26T02:22:33;7.5;;;0.8;;
6561;SDS011;3314;50.890;4.722;2024-02-26T02:24:32;5.1;;;0.7;;
6561;SDS011;3314;50.890;4.722;2024-02-26T02:26:32;6.2;;;0.7;;
6561;SDS011;3314;50.890;4.722;2024-02-26T02:28:32;5.4;;;0.8;;
6561;SDS011;3314;50.890;4.722;2024-02-26T02:30:31;5.3;;;0.7;;
6561;SDS011;3314;50.890;4.722;2024-02-26T02:32:31;5.3;;;0.8;;
6561;SDS011;3314;50.890;4.722;2024-02-26T02:34:31;5.2;;;0.8;;
6561;SDS011;3314;50.890;4.722;2024-02-26T02:36:31;6.2;;;1.0;;
6561;SDS011;3314;50.890;4.722;2024-02-26T02:38:32;4.9;;;0.7;;
6561;SDS011;3314;50.890;4.722;2024-02-26T02:40:31;5.3;;;0.7;;
6561;SDS011;3314;50.890;4.722;2024-02-26T02:42:31;5.4;;;0.8;;
6561;SDS011;3314;50.890;4.722;2024-02-26T02:44:31;6.0;;;0.9;;
6561;SDS011;3314;50.890;4.722;2024-02-26T02:46:31;7.1;;;0.8;;
6561;SDS011;3314;50.890;4.722;2024-02-26T02:48:31;6.5;;;0.9;;
6561;SDS011;3314;50.890;4.722;2024-02-26T02:50:30;5.3;;;1.0;;
6561;SDS011;3314;50.890;4.722;2024-02-26T02:52:30;6.1;;;1.0;;
6561;SDS011;3314;50.890;4.722;2024-02-26T02:54:30;5.3;;;1.1;;
6561;SDS011;3314;50.890;4.722;2024-02-26T02:56:30;6.6;;;1.1;;
6561;SDS011;3314;50.890;4.722;2024-02-26T02:58:29;5.6;;;0.8;;
6561;SDS011;3314;50.890;4.722;2024-02-26T03:00:29;9.1;;;1.3;;
6561;SDS011;3314;50.890;4.722;2024-02-26T03:02:30;8.3;;;1.3;;
6561;SDS011;3314;50.890;4.722;2024-02-26T03:04:19;5.8;;;0.9;;
6561;SDS011;3314;50.890;4.722;2024-02-26T03:06:19;6.9;;;0.8;;
6561;SDS011;3314;50.890;4.722;2024-02-26T03:08:19;7.3;;;0.9;;
6561;SDS011;3314;50.890;4.722;2024-02-26T03:10:20;6.3;;;1.0;;
6561;SDS011;3314;50.890;4.722;2024-02-26T03:12:20;5.3;;;0.9;;
6561;SDS011;3314;50.890;4.722;2024-02-26T03:14:19;8.4;;;1.4;;
6561;SDS011;3314;50.890;4.722;2024-02-26T03:16:19;5.4;;;0.9;;
6561;SDS011;3314;50.890;4.722;2024-02-26T03:18:19;5.3;;;0.9;;
6561;SDS011;3314;50.890;4.722;2024-02-26T03:20:20;5.7;;;1.0;;
6561;SDS011;3314;50.890;4.722;2024-02-26T03:22:19;6.4;;;0.9;;
6561;SDS011;3314;50.890;4.722;2024-02-26T03:24:19;5.9;;;0.8;;
6561;SDS011;3314;50.890;4.722;2024-02-26T03:26:19;5.9;;;0.8;;
6561;SDS011;3314;50.890;4.722;2024-02-26T03:28:18;5.2;;;0.9;;
6561;SDS011;3314;50.890;4.722;2024-02-26T03:30:18;5.7;;;0.9;;
6561;SDS011;3314;50.890;4.722;2024-02-26T03:32:18;5.7;;;1.1;;
6561;SDS011;3314;50.890;4.722;2024-02-26T03:34:19;6.3;;;1.1;;
6561;SDS011;3314;50.890;4.722;2024-02-26T03:36:19;5.4;;;0.8;;
6561;SDS011;3314;50.890;4.722;2024-02-26T03:38:18;5.8;;;1.0;;
6561;SDS011;3314;50.890;4.722;2024-02-26T03:40:20;6.0;;;1.2;;
6561;SDS011;3314;50.890;4.722;2024-02-26T03:42:19;6.4;;;1.3;;
6561;SDS011;3314;50.890;4.722;2024-02-26T03:44:19;5.8;;;1.0;;
6561;SDS011;3314;50.890;4.722;2024-02-26T03:46:19;6.9;;;0.9;;
6561;SDS011;3314;50.890;4.722;2024-02-26T03:48:18;7.8;;;1.1;;
6561;SDS011;3314;50.890;4.722;2024-02-26T03:50:18;7.2;;;1.1;;
6561;SDS011;3314;50.890;4.722;2024-02-26T03:52:18;5.7;;;1.0;;
6561;SDS011;3314;50.890;4.722;2024-02-26T03:54:17;5.1;;;1.0;;
6561;SDS011;3314;50.890;4.722;2024-02-26T03:56:17;7.5;;;1.2;;
6561;SDS011;3314;50.890;4.722;2024-02-26T03:58:17;6.3;;;1.2;;
6561;SDS011;3314;50.890;4.722;2024-02-26T04:00:20;5.8;;;1.1;;
6561;SDS011;3314;50.890;4.722;2024-02-26T04:02:10;6.0;;;1.2;;
6561;SDS011;3314;50.890;4.722;2024-02-26T04:04:09;5.7;;;1.1;;
6561;SDS011;3314;50.890;4.722;2024-02-26T04:06:09;6.0;;;1.3;;
6561;SDS011;3314;50.890;4.722;2024-02-26T04:08:11;7.4;;;1.3;;
6561;SDS011;3314;50.890;4.722;2024-02-26T04:10:11;5.6;;;1.1;;
6561;SDS011;3314;50.890;4.722;2024-02-26T04:12:10;7.8;;;1.4;;
6561;SDS011;3314;50.890;4.722;2024-02-26T04:14:12;6.4;;;1.3;;
6561;SDS011;3314;50.890;4.722;2024-02-26T04:16:11;6.0;;;1.2;;
6561;SDS011;3314;50.890;4.722;2024-02-26T04:18:11;5.9;;;1.3;;
6561;SDS011;3314;50.890;4.722;2024-02-26T04:20:13;5.9;;;1.1;;
6561;SDS011;3314;50.890;4.722;2024-02-26T04:22:13;5.4;;;1.1;;
6561;SDS011;3314;50.890;4.722;2024-02-26T04:24:13;6.7;;;1.2;;
6561;SDS011;3314;50.890;4.722;2024-02-26T04:26:13;6.4;;;1.6;;
6561;SDS011;3314;50.890;4.722;2024-02-26T04:28:13;7.1;;;1.5;;
6561;SDS011;3314;50.890;4.722;2024-02-26T04:30:13;6.8;;;1.4;;
6561;SDS011;3314;50.890;4.722;2024-02-26T04:32:03;6.0;;;1.6;;
6561;SDS011;3314;50.890;4.722;2024-02-26T04:34:03;6.0;;;1.4;;
6561;SDS011;3314;50.890;4.722;2024-02-26T04:36:03;7.3;;;1.7;;
6561;SDS011;3314;50.890;4.722;2024-02-26T04:38:03;6.6;;;1.1;;
6561;SDS011;3314;50.890;4.722;2024-02-26T04:40:05;6.9;;;1.2;;
6561;SDS011;3314;50.890;4.722;2024-02-26T04:42:05;6.9;;;1.8;;
6561;SDS011;3314;50.890;4.722;2024-02-26T04:44:05;6.8;;;1.9;;
6561;SDS011;3314;50.890;4.722;2024-02-26T04:46:04;6.7;;;1.5;;
6561;SDS011;3314;50.890;4.722;2024-02-26T04:48:04;7.1;;;1.8;;
6561;SDS011;3314;50.890;4.722;2024-02-26T04:50:05;7.4;;;1.8;;
6561;SDS011;3314;50.890;4.722;2024-02-26T04:52:05;6.7;;;1.7;;
6561;SDS011;3314;50.890;4.722;2024-02-26T04:54:04;8.0;;;1.9;;
6561;SDS011;3314;50.890;4.722;2024-02-26T04:56:04;7.5;;;2.4;;
6561;SDS011;3314;50.890;4.722;2024-02-26T04:58:04;7.9;;;1.9;;
6561;SDS011;3314;50.890;4.722;2024-02-26T05:00:07;8.2;;;2.1;;
6561;SDS011;3314;50.890;4.722;2024-02-26T05:02:07;7.6;;;2.2;;
6561;SDS011;3314;50.890;4.722;2024-02-26T05:04:06;8.1;;;2.1;;
6561;SDS011;3314;50.890;4.722;2024-02-26T05:06:06;6.7;;;1.9;;
6561;SDS011;3314;50.890;4.722;2024-02-26T05:07:56;7.0;;;2.4;;
6561;SDS011;3314;50.890;4.722;2024-02-26T05:09:56;7.3;;;2.2;;
6561;SDS011;3314;50.890;4.722;2024-02-26T05:11:56;7.4;;;2.3;;
6561;SDS011;3314;50.890;4.722;2024-02-26T05:13:56;7.8;;;2.1;;
6561;SDS011;3314;50.890;4.722;2024-02-26T05:15:56;6.6;;;2.0;;
6561;SDS011;3314;50.890;4.722;2024-02-26T05:17:56;7.1;;;2.4;;
6561;SDS011;3314;50.890;4.722;2024-02-26T05:19:55;7.2;;;2.0;;
6561;SDS011;3314;50.890;4.722;2024-02-26T05:21:55;7.1;;;2.3;;
6561;SDS011;3314;50.890;4.722;2024-02-26T05:23:55;7.9;;;2.7;;
6561;SDS011;3314;50.890;4.722;2024-02-26T05:25:54;9.0;;;2.6;;
6561;SDS011;3314;50.890;4.722;2024-02-26T05:27:54;9.0;;;2.7;;
6561;SDS011;3314;50.890;4.722;2024-02-26T05:29:54;6.7;;;2.1;;
6561;SDS011;3314;50.890;4.722;2024-02-26T05:31:54;8.5;;;3.2;;
6561;SDS011;3314;50.890;4.722;2024-02-26T05:33:54;8.7;;;3.0;;
6561;SDS011;3314;50.890;4.722;2024-02-26T05:35:54;10.0;;;2.9;;
6561;SDS011;3314;50.890;4.722;2024-02-26T05:37:54;7.8;;;2.6;;
6561;SDS011;3314;50.890;4.722;2024-02-26T05:39:54;7.9;;;2.6;;
6561;SDS011;3314;50.890;4.722;2024-02-26T05:41:53;8.1;;;2.9;;
6561;SDS011;3314;50.890;4.722;2024-02-26T05:43:53;10.5;;;3.7;;
6561;SDS011;3314;50.890;4.722;2024-02-26T05:45:53;8.5;;;3.1;;
6561;SDS011;3314;50.890;4.722;2024-02-26T05:47:53;10.2;;;3.2;;
6561;SDS011;3314;50.890;4.722;2024-02-26T05:49:52;9.6;;;3.4;;
6561;SDS011;3314;50.890;4.722;2024-02-26T05:51:52;12.2;;;3.7;;
6561;SDS011;3314;50.890;4.722;2024-02-26T05:53:55;9.5;;;3.1;;
6561;SDS011;3314;50.890;4.722;2024-02-26T05:55:55;11.5;;;3.5;;
6561;SDS011;3314;50.890;4.722;2024-02-26T05:57:54;9.4;;;3.3;;
6561;SDS011;3314;50.890;4.722;2024-02-26T05:59:54;9.8;;;3.7;;
6561;SDS011;3314;50.890;4.722;2024-02-26T06:01:54;10.9;;;3.5;;
6561;SDS011;3314;50.890;4.722;2024-02-26T06:03:53;9.4;;;3.2;;
6561;SDS011;3314;50.890;4.722;2024-02-26T06:05:53;12.9;;;4.5;;
6561;SDS011;3314;50.890;4.722;2024-02-26T06:07:53;9.2;;;3.9;;
6561;SDS011;3314;50.890;4.722;2024-02-26T06:09:52;11.0;;;3.8;;
6561;SDS011;3314;50.890;4.722;2024-02-26T06:11:52;11.3;;;4.3;;
6561;SDS011;3314;50.890;4.722;2024-02-26T06:13:52;11.2;;;3.8;;
6561;SDS011;3314;50.890;4.722;2024-02-26T06:15:52;11.2;;;4.0;;
6561;SDS011;3314;50.890;4.722;2024-02-26T06:17:42;10.5;;;4.1;;
6561;SDS011;3314;50.890;4.722;2024-02-26T06:19:42;10.4;;;4.4;;
6561;SDS011;3314;50.890;4.722;2024-02-26T06:21:41;12.5;;;3.9;;
6561;SDS011;3314;50.890;4.722;2024-02-26T06:23:41;12.7;;;4.8;;
6561;SDS011;3314;50.890;4.722;2024-02-26T06:25:41;8.9;;;3.8;;
6561;SDS011;3314;50.890;4.722;2024-02-26T06:27:41;12.9;;;4.6;;
6561;SDS011;3314;50.890;4.722;2024-02-26T06:29:41;10.8;;;4.0;;
6561;SDS011;3314;50.890;4.722;2024-02-26T06:31:41;11.3;;;4.5;;
6561;SDS011;3314;50.890;4.722;2024-02-26T06:33:40;9.4;;;4.1;;
6561;SDS011;3314;50.890;4.722;2024-02-26T06:35:40;10.8;;;4.1;;
6561;SDS011;3314;50.890;4.722;2024-02-26T06:37:40;10.7;;;4.7;;
6561;SDS011;3314;50.890;4.722;2024-02-26T06:39:39;11.0;;;4.3;;
6561;SDS011;3314;50.890;4.722;2024-02-26T06:41:39;12.5;;;4.7;;
6561;SDS011;3314;50.890;4.722;2024-02-26T06:43:39;14.1;;;5.1;;
6561;SDS011;3314;50.890;4.722;2024-02-26T06:45:39;10.6;;;4.7;;
6561;SDS011;3314;50.890;4.722;2024-02-26T06:47:39;10.3;;;4.5;;
6561;SDS011;3314;50.890;4.722;2024-02-26T06:49:39;11.2;;;5.3;;
6561;SDS011;3314;50.890;4.722;2024-02-26T06:51:38;11.1;;;5.3;;
6561;SDS011;3314;50.890;4.722;2024-02-26T06:53:38;10.6;;;4.8;;
6561;SDS011;3314;50.890;4.722;2024-02-26T06:55:40;11.2;;;5.1;;
6561;SDS011;3314;50.890;4.722;2024-02-26T06:57:40;12.0;;;5.1;;
6561;SDS011;3314;50.890;4.722;2024-02-26T06:59:40;10.7;;;5.0;;
6561;SDS011;3314;50.890;4.722;2024-02-26T07:01:40;12.2;;;5.3;;
6561;SDS011;3314;50.890;4.722;2024-02-26T07:03:40;11.7;;;5.3;;
6561;SDS011;3314;50.890;4.722;2024-02-26T07:05:40;12.0;;;5.5;;
6561;SDS011;3314;50.890;4.722;2024-02-26T07:07:40;13.1;;;5.3;;
6561;SDS011;3314;50.890;4.722;2024-02-26T07:09:42;10.1;;;5.1;;
6561;SDS011;3314;50.890;4.722;2024-02-26T07:11:43;10.5;;;4.9;;
6561;SDS011;3314;50.890;4.722;2024-02-26T07:13:31;11.7;;;5.1;;
6561;SDS011;3314;50.890;4.722;2024-02-26T07:15:31;11.0;;;5.2;;
6561;SDS011;3314;50.890;4.722;2024-02-26T07:17:31;8.8;;;4.5;;
6561;SDS011;3314;50.890;4.722;2024-02-26T07:19:31;11.7;;;5.1;;
6561;SDS011;3314;50.890;4.722;2024-02-26T07:21:30;11.5;;;5.5;;
6561;SDS011;3314;50.890;4.722;2024-02-26T07:23:30;8.8;;;3.9;;
6561;SDS011;3314;50.890;4.722;2024-02-26T07:25:30;12.3;;;5.2;;
6561;SDS011;3314;50.890;4.722;2024-02-26T07:27:29;10.2;;;4.3;;
6561;SDS011;3314;50.890;4.722;2024-02-26T07:29:29;10.5;;;4.9;;
6561;SDS011;3314;50.890;4.722;2024-02-26T07:31:29;10.2;;;4.7;;
6561;SDS011;3314;50.890;4.722;2024-02-26T07:33:29;11.3;;;4.8;;
6561;SDS011;3314;50.890;4.722;2024-02-26T07:35:29;12.3;;;4.6;;
6561;SDS011;3314;50.890;4.722;2024-02-26T07:37:28;12.3;;;5.3;;
6561;SDS011;3314;50.890;4.722;2024-02-26T07:39:28;10.3;;;4.2;;
6561;SDS011;3314;50.890;4.722;2024-02-26T07:41:28;11.0;;;4.4;;
6561;SDS011;3314;50.890;4.722;2024-02-26T07:43:27;10.7;;;4.9;;
6561;SDS011;3314;50.890;4.722;2024-02-26T07:45:28;10.7;;;5.2;;
6561;SDS011;3314;50.890;4.722;2024-02-26T07:47:27;12.2;;;5.3;;
6561;SDS011;3314;50.890;4.722;2024-02-26T07:49:27;10.7;;;4.8;;
6561;SDS011;3314;50.890;4.722;2024-02-26T07:51:27;11.0;;;4.9;;
6561;SDS011;3314;50.890;4.722;2024-02-26T07:53:26;9.5;;;4.5;;
6561;SDS011;3314;50.890;4.722;2024-02-26T07:55:26;10.0;;;4.5;;
6561;SDS011;3314;50.890;4.722;2024-02-26T07:57:26;10.4;;;4.8;;
6561;SDS011;3314;50.890;4.722;2024-02-26T07:59:25;11.0;;;4.5;;
6561;SDS011;3314;50.890;4.722;2024-02-26T08:01:26;9.8;;;4.9;;
6561;SDS011;3314;50.890;4.722;2024-02-26T08:03:28;9.0;;;4.0;;
6561;SDS011;3314;50.890;4.722;2024-02-26T08:05:28;12.0;;;4.8;;
6561;SDS011;3314;50.890;4.722;2024-02-26T08:07:28;10.5;;;4.3;;
6561;SDS011;3314;50.890;4.722;2024-02-26T08:09:28;11.5;;;4.3;;
6561;SDS011;3314;50.890;4.722;2024-02-26T08:11:28;9.8;;;4.6;;
6561;SDS011;3314;50.890;4.722;2024-02-26T08:13:28;11.7;;;4.7;;
6561;SDS011;3314;50.890;4.722;2024-02-26T08:15:28;9.5;;;4.3;;
6561;SDS011;3314;50.890;4.722;2024-02-26T08:17:28;9.1;;;4.1;;
6561;SDS011;3314;50.890;4.722;2024-02-26T08:19:27;9.4;;;3.9;;
6561;SDS011;3314;50.890;4.722;2024-02-26T08:21:27;9.1;;;4.0;;
6561;SDS011;3314;50.890;4.722;2024-02-26T08:23:27;9.5;;;4.4;;
6561;SDS011;3314;50.890;4.722;2024-02-26T08:25:27;8.8;;;4.3;;
6561;SDS011;3314;50.890;4.722;2024-02-26T08:27:26;9.5;;;4.4;;
6561;SDS011;3314;50.890;4.722;2024-02-26T08:29:26;11.2;;;4.2;;
6561;SDS011;3314;50.890;4.722;2024-02-26T08:31:26;8.9;;;3.9;;
6561;SDS011;3314;50.890;4.722;2024-02-26T08:33:25;9.4;;;4.4;;
6561;SDS011;3314;50.890;4.722;2024-02-26T08:35:25;9.0;;;4.4;;
6561;SDS011;3314;50.890;4.722;2024-02-26T08:37:25;9.1;;;4.3;;
6561;SDS011;3314;50.890;4.722;2024-02-26T08:39:26;9.3;;;4.3;;
6561;SDS011;3314;50.890;4.722;2024-02-26T08:41:14;9.6;;;4.8;;
6561;SDS011;3314;50.890;4.722;2024-02-26T08:43:14;13.0;;;4.6;;
6561;SDS011;3314;50.890;4.722;2024-02-26T08:45:13;9.8;;;4.8;;
6561;SDS011;3314;50.890;4.722;2024-02-26T08:47:13;9.9;;;4.5;;
6561;SDS011;3314;50.890;4.722;2024-02-26T08:49:13;10.1;;;4.5;;
6561;SDS011;3314;50.890;4.722;2024-02-26T08:51:13;9.5;;;4.6;;
6561;SDS011;3314;50.890;4.722;2024-02-26T08:53:13;9.6;;;4.4;;
6561;SDS011;3314;50.890;4.722;2024-02-26T08:55:14;10.0;;;5.0;;
6561;SDS011;3314;50.890;4.722;2024-02-26T08:57:13;8.4;;;4.1;;
6561;SDS011;3314;50.890;4.722;2024-02-26T08:59:14;9.9;;;4.4;;
6561;SDS011;3314;50.890;4.722;2024-02-26T09:01:13;9.4;;;4.1;;
6561;SDS011;3314;50.890;4.722;2024-02-26T09:03:13;11.4;;;5.0;;
6561;SDS011;3314;50.890;4.722;2024-02-26T09:05:13;9.0;;;3.9;;
6561;SDS011;3314;50.890;4.722;2024-02-26T09:07:12;9.6;;;4.7;;
6561;SDS011;3314;50.890;4.722;2024-02-26T09:09:12;9.2;;;4.2;;
6561;SDS011;3314;50.890;4.722;2024-02-26T09:11:12;11.2;;;4.1;;
6561;SDS011;3314;50.890;4.722;2024-02-26T09:13:12;9.8;;;4.6;;
6561;SDS011;3314;50.890;4.722;2024-02-26T09:15:12;9.9;;;4.6;;
6561;SDS011;3314;50.890;4.722;2024-02-26T09:17:11;9.4;;;4.6;;
6561;SDS011;3314;50.890;4.722;2024-02-26T09:19:11;9.7;;;4.5;;
6561;SDS011;3314;50.890;4.722;2024-02-26T09:21:14;10.3;;;4.7;;
6561;SDS011;3314;50.890;4.722;2024-02-26T09:23:17;10.2;;;4.7;;
6561;SDS011;3314;50.890;4.722;2024-02-26T09:25:10;10.4;;;5.0;;
6561;SDS011;3314;50.890;4.722;2024-02-26T09:27:10;9.9;;;5.1;;
6561;SDS011;3314;50.890;4.722;2024-02-26T09:29:10;10.1;;;4.7;;
6561;SDS011;3314;50.890;4.722;2024-02-26T09:31:12;9.6;;;4.5;;
6561;SDS011;3314;50.890;4.722;2024-02-26T09:33:17;9.7;;;4.3;;
6561;SDS011;3314;50.890;4.722;2024-02-26T09:35:05;10.8;;;5.1;;
6561;SDS011;3314;50.890;4.722;2024-02-26T09:37:06;9.5;;;4.7;;
6561;SDS011;3314;50.890;4.722;2024-02-26T09:39:11;9.5;;;4.3;;
6561;SDS011;3314;50.890;4.722;2024-02-26T09:41:13;11.6;;;5.1;;
6561;SDS011;3314;50.890;4.722;2024-02-26T09:43:03;9.8;;;4.4;;
6561;SDS011;3314;50.890;4.722;2024-02-26T09:45:05;10.0;;;5.0;;
6561;SDS011;3314;50.890;4.722;2024-02-26T09:47:05;10.4;;;4.5;;
6561;SDS011;3314;50.890;4.722;2024-02-26T09:49:05;9.5;;;3.9;;
6561;SDS011;3314;50.890;4.722;2024-02-26T09:51:05;10.0;;;4.3;;
6561;SDS011;3314;50.890;4.722;2024-02-26T09:53:08;8.8;;;3.9;;
6561;SDS011;3314;50.890;4.722;2024-02-26T09:55:08;9.1;;;4.0;;
6561;SDS011;3314;50.890;4.722;2024-02-26T09:57:15;8.9;;;3.5;;
6561;SDS011;3314;50.890;4.722;2024-02-26T09:59:04;8.5;;;3.7;;
6561;SDS011;3314;50.890;4.722;2024-02-26T10:01:05;9.7;;;3.7;;
6561;SDS011;3314;50.890;4.722;2024-02-26T10:03:06;10.3;;;3.7;;
6561;SDS011;3314;50.890;4.722;2024-02-26T10:04:58;8.5;;;3.8;;
6561;SDS011;3314;50.890;4.722;2024-02-26T10:07:00;9.3;;;3.4;;
6561;SDS011;3314;50.890;4.722;2024-02-26T10:09:00;10.4;;;4.2;;
6561;SDS011;3314;50.890;4.722;2024-02-26T10:11:00;9.2;;;4.3;;
6561;SDS011;3314;50.890;4.722;2024-02-26T10:13:00;10.6;;;4.0;;
6561;SDS011;3314;50.890;4.722;2024-02-26T10:15:00;10.4;;;3.8;;
6561;SDS011;3314;50.890;4.722;2024-02-26T10:17:01;9.5;;;4.2;;
6561;SDS011;3314;50.890;4.722;2024-02-26T10:19:01;8.6;;;3.5;;
6561;SDS011;3314;50.890;4.722;2024-02-26T10:21:01;9.9;;;4.3;;
6561;SDS011;3314;50.890;4.722;2024-02-26T10:23:02;8.2;;;3.5;;
6561;SDS011;3314;50.890;4.722;2024-02-26T10:25:02;7.6;;;3.2;;
6561;SDS011;3314;50.890;4.722;2024-02-26T10:27:02;8.5;;;3.4;;
6561;SDS011;3314;50.890;4.722;2024-02-26T10:29:02;10.0;;;4.2;;
6561;SDS011;3314;50.890;4.722;2024-02-26T10:31:02;9.5;;;4.3;;
6561;SDS011;3314;50.890;4.722;2024-02-26T10:33:02;9.1;;;3.8;;
6561;SDS011;3314;50.890;4.722;2024-02-26T10:35:04;9.2;;;3.8;;
6561;SDS011;3314;50.890;4.722;2024-02-26T10:36:56;8.2;;;3.6;;
6561;SDS011;3314;50.890;4.722;2024-02-26T10:38:56;9.2;;;4.1;;
6561;SDS011;3314;50.890;4.722;2024-02-26T10:40:55;9.1;;;4.0;;
6561;SDS011;3314;50.890;4.722;2024-02-26T10:42:55;9.4;;;3.9;;
6561;SDS011;3314;50.890;4.722;2024-02-26T10:44:55;8.7;;;3.8;;
6561;SDS011;3314;50.890;4.722;2024-02-26T10:46:54;10.1;;;4.0;;
6561;SDS011;3314;50.890;4.722;2024-02-26T10:48:55;8.4;;;3.6;;
6561;SDS011;3314;50.890;4.722;2024-02-26T10:50:56;8.9;;;3.8;;
6561;SDS011;3314;50.890;4.722;2024-02-26T10:52:56;9.8;;;4.5;;
6561;SDS011;3314;50.890;4.722;2024-02-26T10:54:56;9.5;;;4.0;;
6561;SDS011;3314;50.890;4.722;2024-02-26T10:56:56;8.8;;;3.6;;
6561;SDS011;3314;50.890;4.722;2024-02-26T10:58:56;9.1;;;3.9;;
6561;SDS011;3314;50.890;4.722;2024-02-26T11:00:57;11.7;;;3.7;;
6561;SDS011;3314;50.890;4.722;2024-02-26T11:02:58;7.7;;;3.0;;
6561;SDS011;3314;50.890;4.722;2024-02-26T11:04:47;7.9;;;3.1;;
6561;SDS011;3314;50.890;4.722;2024-02-26T11:06:47;10.2;;;3.7;;
6561;SDS011;3314;50.890;4.722;2024-02-26T11:08:47;8.6;;;3.4;;
6561;SDS011;3314;50.890;4.722;2024-02-26T11:10:48;8.4;;;2.9;;
6561;SDS011;3314;50.890;4.722;2024-02-26T11:12:49;8.5;;;3.3;;
6561;SDS011;3314;50.890;4.722;2024-02-26T11:14:52;7.9;;;2.9;;
6561;SDS011;3314;50.890;4.722;2024-02-26T11:16:52;8.8;;;3.0;;
6561;SDS011;3314;50.890;4.722;2024-02-26T11:18:52;9.3;;;2.7;;
6561;SDS011;3314;50.890;4.722;2024-02-26T11:20:52;7.6;;;2.7;;
6561;SDS011;3314;50.890;4.722;2024-02-26T11:22:43;7.6;;;2.9;;
6561;SDS011;3314;50.890;4.722;2024-02-26T11:24:43;8.1;;;2.7;;
6561;SDS011;3314;50.890;4.722;2024-02-26T11:26:46;8.9;;;3.2;;
6561;SDS011;3314;50.890;4.722;2024-02-26T11:28:48;8.3;;;3.1;;
6561;SDS011;3314;50.890;4.722;2024-02-26T11:30:48;7.4;;;2.7;;
6561;SDS011;3314;50.890;4.722;2024-02-26T11:32:48;8.5;;;3.0;;
6561;SDS011;3314;50.890;4.722;2024-02-26T11:34:49;7.8;;;2.8;;
6561;SDS011;3314;50.890;4.722;2024-02-26T11:36:49;7.6;;;2.8;;
6561;SDS011;3314;50.890;4.722;2024-02-26T11:38:52;7.6;;;2.6;;
6561;SDS011;3314;50.890;4.722;2024-02-26T11:40:41;7.2;;;2.9;;
6561;SDS011;3314;50.890;4.722;2024-02-26T11:42:43;8.7;;;2.4;;
6561;SDS011;3314;50.890;4.722;2024-02-26T11:44:43;7.4;;;2.8;;
6561;SDS011;3314;50.890;4.722;2024-02-26T11:46:43;7.3;;;2.5;;
6561;SDS011;3314;50.890;4.722;2024-02-26T11:48:43;7.2;;;2.6;;
6561;SDS011;3314;50.890;4.722;2024-02-26T11:50:43;9.0;;;2.9;;
6561;SDS011;3314;50.890;4.722;2024-02-26T11:53:10;7.1;;;2.5;;
6561;SDS011;3314;50.890;4.722;2024-02-26T11:54:44;7.4;;;2.9;;
6561;SDS011;3314;50.890;4.722;2024-02-26T11:56:44;7.2;;;2.9;;
6561;SDS011;3314;50.890;4.722;2024-02-26T11:58:45;7.7;;;2.4;;
6561;SDS011;3314;50.890;4.722;2024-02-26T12:00:45;7.7;;;2.7;;
6561;SDS011;3314;50.890;4.722;2024-02-26T12:02:46;7.6;;;2.6;;
6561;SDS011;3314;50.890;4.722;2024-02-26T12:04:36;7.6;;;2.8;;
6561;SDS011;3314;50.890;4.722;2024-02-26T12:06:45;6.5;;;2.4;;
6561;SDS011;3314;50.890;4.722;2024-02-26T12:08:34;7.6;;;3.0;;
6561;SDS011;3314;50.890;4.722;2024-02-26T12:10:36;8.3;;;3.1;;
6561;SDS011;3314;50.890;4.722;2024-02-26T12:12:36;8.5;;;2.4;;
6561;SDS011;3314;50.890;4.722;2024-02-26T12:14:38;8.6;;;2.8;;
6561;SDS011;3314;50.890;4.722;2024-02-26T12:16:43;8.6;;;3.1;;
6561;SDS011;3314;50.890;4.722;2024-02-26T12:18:32;7.2;;;2.4;;
6561;SDS011;3314;50.890;4.722;2024-02-26T12:20:32;9.0;;;2.8;;
6561;SDS011;3314;50.890;4.722;2024-02-26T12:22:31;8.0;;;2.5;;
6561;SDS011;3314;50.890;4.722;2024-02-26T12:24:31;8.2;;;3.1;;
6561;SDS011;3314;50.890;4.722;2024-02-26T12:26:30;7.0;;;2.4;;
6561;SDS011;3314;50.890;4.722;2024-02-26T12:28:30;7.4;;;2.9;;
6561;SDS011;3314;50.890;4.722;2024-02-26T12:30:31;10.5;;;2.8;;
6561;SDS011;3314;50.890;4.722;2024-02-26T12:32:31;6.9;;;2.3;;
6561;SDS011;3314;50.890;4.722;2024-02-26T12:34:30;7.6;;;2.7;;
6561;SDS011;3314;50.890;4.722;2024-02-26T12:36:30;6.8;;;2.6;;
6561;SDS011;3314;50.890;4.722;2024-02-26T12:38:30;8.1;;;3.4;;
6561;SDS011;3314;50.890;4.722;2024-02-26T12:40:31;9.8;;;2.7;;
6561;SDS011;3314;50.890;4.722;2024-02-26T12:42:32;8.2;;;2.8;;
6561;SDS011;3314;50.890;4.722;2024-02-26T12:44:32;8.1;;;2.8;;